Time;durP1;ratioP1;P1;durP2;ratioP2;P2;SDS_P1;SDS_P2;PMS_P1;PMS_P2;Temp;Humidity;BMP_temperature;BMP_pressure;BME280_temperature;BME280_humidity;BME280_pressure;Samples;Min_cycle;Max_cycle;Signal;HPM_P1;HPM_P2
2022/11/12 10:03:29;;;;;;;2.87;2.40;;;9.20;96.30;;;;;;5109745;27;20626;-75
2022/11/12 10:06:00;;;;;;;8.90;2.00;;;9.50;96.30;;;;;;5110003;28;20847;-74
2022/11/12 10:08:50;;;;;;;5.03;2.00;;;10.50;96.30;;;;;;5103360;28;20446;-74
2022/11/12 10:16:41;;;;;;;2.40;1.90;;;13.30;96.30;;;;;;5089774;28;20904;-74
2022/11/12 10:18:33;;;;;;;2.80;2.00;;;14.60;96.30;;;;;;5088416;28;20817;-75
2022/11/12 10:21:23;;;;;;;3.00;2.07;;;15.30;96.30;;;;;;5086544;28;20444;-75
2022/11/12 10:23:52;;;;;;;2.90;2.13;;;16.20;94.30;;;;;;5098414;28;20411;-74
2022/11/12 10:26:20;;;;;;;3.90;2.83;;;16.80;91.70;;;;;;5107734;28;20411;-73
2022/11/12 10:28:49;;;;;;;2.90;2.10;;;16.80;91.20;;;;;;5097939;28;20798;-74
2022/11/12 10:31:20;;;;;;;3.63;2.20;;;17.20;91.00;;;;;;5108353;28;20939;-74
2022/11/12 10:33:45;;;;;;;4.87;2.50;;;17.90;90.10;;;;;;5099642;28;20501;-74
2022/11/12 10:36:34;;;;;;;3.20;2.20;;;18.40;88.00;;;;;;5105458;28;20447;-74
2022/11/12 10:39:00;;;;;;;2.70;1.93;;;18.30;86.80;;;;;;5088182;28;20178;-74
2022/11/12 10:41:31;;;;;;;2.73;2.10;;;18.70;85.70;;;;;;5088283;28;20464;-74
2022/11/12 10:43:59;;;;;;;3.83;2.00;;;18.70;85.90;;;;;;5088685;28;20159;-74
2022/11/12 10:46:26;;;;;;;5.30;2.47;;;18.60;87.40;;;;;;5088100;28;20884;-74
2022/11/12 10:48:58;;;;;;;2.63;1.73;;;18.10;91.90;;;;;;5087645;28;20405;-74
2022/11/12 10:51:30;;;;;;;3.83;2.40;;;18.00;92.00;;;;;;5096829;28;20930;-74
2022/11/12 10:53:56;;;;;;;4.70;1.83;;;18.00;91.60;;;;;;5107300;28;20472;-73
2022/11/12 10:56:28;;;;;;;3.93;2.20;;;17.80;92.50;;;;;;5108324;28;20942;-74
2022/11/12 10:59:19;;;;;;;3.40;1.87;;;17.50;92.50;;;;;;5108082;28;20174;-74
2022/11/12 11:01:45;;;;;;;3.20;2.00;;;17.20;94.10;;;;;;5107022;28;20833;-74
2022/11/12 11:04:18;;;;;;;2.90;1.67;;;17.30;90.90;;;;;;5105909;28;20434;-74
2022/11/12 11:06:43;;;;;;;2.20;1.60;;;16.70;88.70;;;;;;5103753;28;20411;-75
2022/11/12 11:09:12;;;;;;;2.43;1.93;;;16.40;90.40;;;;;;5107317;28;20488;-74
2022/11/12 11:11:49;;;;;;;2.50;1.90;;;16.10;93.20;;;;;;5104754;28;20681;-74
2022/11/12 11:14:34;;;;;;;2.00;1.80;;;15.90;94.70;;;;;;5096218;28;20422;-75
2022/11/12 11:17:07;;;;;;;2.07;1.33;;;15.90;96.30;;;;;;5094447;28;20393;-74
2022/11/12 11:19:41;;;;;;;1.97;1.30;;;15.70;91.90;;;;;;5094873;28;20480;-75
2022/11/12 11:22:28;;;;;;;5.00;1.30;;;15.60;86.30;;;;;;5094014;28;20466;-75
2022/11/12 11:25:10;;;;;;;2.10;1.70;;;15.60;85.10;;;;;;5091416;28;20411;-75
2022/11/12 11:27:42;;;;;;;2.27;1.60;;;15.70;84.60;;;;;;5092791;28;20447;-74
2022/11/12 11:30:14;;;;;;;2.30;1.40;;;15.70;84.60;;;;;;5094083;28;20992;-74
2022/11/12 11:44:51;;;;;;;4.60;1.30;;;14.60;89.30;;;;;;5049645;28;20588;-75
2022/11/12 11:47:35;;;;;;;1.67;1.33;;;14.50;92.00;;;;;;5047549;28;20409;-74
2022/11/12 11:50:10;;;;;;;2.73;1.00;;;14.40;95.10;;;;;;5048752;28;20422;-74
2022/11/12 11:53:09;;;;;;;2.67;1.40;;;14.30;96.30;;;;;;5028807;28;20464;-74
2022/11/12 11:56:09;;;;;;;1.97;1.30;;;14.20;96.30;;;;;;5027988;28;20431;-74
2022/11/12 11:58:57;;;;;;;3.20;1.50;;;14.20;96.30;;;;;;5027062;28;20446;-74
2022/11/12 12:02:05;;;;;;;2.27;1.90;;;14.70;96.30;;;;;;5025017;28;20430;-74
2022/11/12 12:04:45;;;;;;;6.93;1.90;;;15.30;96.30;;;;;;5027483;28;20514;-74
2022/11/12 12:07:26;;;;;;;1.83;1.23;;;15.70;96.30;;;;;;5026733;28;20399;-74
2022/11/12 12:10:03;;;;;;;3.10;1.37;;;16.10;95.10;;;;;;5009224;28;20388;-74
2022/11/12 12:12:41;;;;;;;3.87;1.20;;;16.50;94.50;;;;;;5009179;28;20772;-75
2022/11/12 12:15:18;;;;;;;4.13;1.27;;;16.90;91.10;;;;;;5009150;28;20495;-75
2022/11/12 12:18:01;;;;;;;1.57;1.10;;;17.10;90.90;;;;;;5008275;28;20415;-75
2022/11/12 12:20:44;;;;;;;2.70;1.70;;;17.20;87.60;;;;;;5008905;28;20411;-74
2022/11/12 12:23:25;;;;;;;3.97;2.80;;;17.10;79.40;;;;;;5008610;28;20452;-75
2022/11/12 12:25:52;;;;;;;2.10;1.83;;;17.30;81.70;;;;;;5025672;28;20410;-75
2022/11/12 12:28:33;;;;;;;2.03;1.60;;;17.50;86.00;;;;;;5027389;28;20466;-75
2022/11/12 12:32:16;;;;;;;2.77;1.73;;;17.60;81.00;;;;;;5084338;28;20543;-73
2022/11/12 12:34:46;;;;;;;4.07;3.57;;;17.60;81.90;;;;;;5049080;28;20411;-72
2022/11/12 12:37:34;;;;;;;2.33;2.10;;;17.40;87.40;;;;;;5057388;28;20432;-73
2022/11/12 12:40:29;;;;;;;9.07;6.40;;;17.30;85.70;;;;;;5068667;28;20410;-73
2022/11/12 13:22:22;;;;;;;1.50;0.80;;;14.70;90.10;;;;;;5069264;28;20556;-74
2022/11/12 13:25:07;;;;;;;3.40;1.10;;;14.70;90.30;;;;;;5069728;28;20410;-74
2022/11/12 13:27:42;;;;;;;3.30;1.10;;;14.80;93.00;;;;;;5052834;28;20450;-75
2022/11/12 13:30:13;;;;;;;5.27;0.87;;;15.00;90.20;;;;;;5049092;28;20798;-76
2022/11/12 13:32:53;;;;;;;1.57;0.70;;;15.10;88.20;;;;;;5029422;28;20415;-76
2022/11/12 13:35:21;;;;;;;1.10;0.60;;;15.00;92.10;;;;;;5029240;28;20785;-74
2022/11/12 13:37:56;;;;;;;1.40;1.20;;;14.70;93.70;;;;;;5028892;28;20482;-74
2022/11/12 13:40:42;;;;;;;4.23;3.03;;;14.50;93.80;;;;;;5028997;28;20946;-73
2022/11/12 13:43:11;;;;;;;3.73;1.43;;;14.40;92.30;;;;;;5029061;28;20399;-73
2022/11/12 13:45:53;;;;;;;1.30;1.10;;;14.30;92.10;;;;;;5027872;28;20415;-73
2022/11/12 13:48:54;;;;;;;1.53;0.80;;;14.40;92.50;;;;;;5041738;28;20414;-73
2022/11/12 13:51:29;;;;;;;1.93;1.13;;;14.40;92.50;;;;;;5047862;28;20442;-73
2022/11/12 13:53:54;;;;;;;1.60;1.00;;;14.30;90.30;;;;;;5048458;28;20897;-73
2022/11/12 13:56:31;;;;;;;1.90;0.93;;;14.20;89.60;;;;;;5048225;28;20429;-73
2022/11/12 13:59:18;;;;;;;1.93;0.60;;;14.20;90.10;;;;;;5047751;28;20262;-73
2022/11/12 14:01:44;;;;;;;1.73;0.87;;;14.00;91.10;;;;;;5046902;28;20830;-73
2022/11/12 14:04:13;;;;;;;1.30;0.90;;;13.70;91.80;;;;;;5048120;28;20468;-73
2022/11/12 14:06:46;;;;;;;1.23;1.00;;;13.50;90.60;;;;;;5047720;28;20406;-73
2022/11/12 14:09:43;;;;;;;1.10;1.00;;;13.30;90.90;;;;;;5046023;28;20407;-73
2022/11/12 14:12:44;;;;;;;2.43;0.93;;;13.20;91.10;;;;;;5042908;28;20450;-73
2022/11/12 14:15:35;;;;;;;2.80;0.90;;;12.90;96.30;;;;;;5052101;28;20846;-73
2022/11/12 14:18:08;;;;;;;7.70;1.03;;;12.60;96.30;;;;;;5047952;28;20414;-73
2022/11/12 14:20:38;;;;;;;1.80;1.20;;;12.40;96.30;;;;;;5062042;28;20460;-73
2022/11/12 14:23:18;;;;;;;2.13;1.60;;;12.20;96.30;;;;;;5051115;28;20969;-73
2022/11/12 14:25:49;;;;;;;1.97;1.60;;;12.10;96.30;;;;;;5055946;28;20547;-73
2022/11/12 14:28:42;;;;;;;2.00;1.00;;;11.90;96.30;;;;;;5050121;28;20434;-73
2022/11/12 14:31:12;;;;;;;2.60;1.70;;;11.70;96.30;;;;;;5026549;28;20451;-73
2022/11/12 14:33:38;;;;;;;1.30;1.20;;;11.60;96.30;;;;;;5031906;28;20418;-73
2022/11/12 14:36:14;;;;;;;1.10;0.90;;;11.40;96.30;;;;;;5054366;28;20928;-73
2022/11/12 14:38:48;;;;;;;1.77;1.10;;;11.20;96.30;;;;;;5052533;28;20172;-73
2022/11/12 14:41:29;;;;;;;2.03;1.10;;;11.10;96.30;;;;;;5053257;28;20461;-73
2022/11/12 14:43:58;;;;;;;1.87;1.20;;;11.00;96.30;;;;;;5034693;28;20404;-72
2022/11/12 14:46:37;;;;;;;1.40;1.10;;;10.80;96.30;;;;;;5034402;28;20567;-73
2022/11/12 14:49:10;;;;;;;2.30;1.03;;;10.70;96.30;;;;;;5033658;28;20415;-73
2022/11/12 14:51:42;;;;;;;1.40;1.10;;;10.50;96.30;;;;;;5034232;28;20449;-73
2022/11/12 14:54:16;;;;;;;1.00;0.80;;;10.40;96.30;;;;;;5034492;28;20414;-75
2022/11/12 14:56:46;;;;;;;1.50;1.30;;;10.20;96.30;;;;;;5033870;28;20406;-72
2022/11/12 14:59:14;;;;;;;1.97;1.37;;;10.10;96.30;;;;;;5042415;28;20422;-72
2022/11/12 15:02:00;;;;;;;3.40;1.93;;;10.00;96.30;;;;;;5053865;28;21007;-72
2022/11/12 15:04:36;;;;;;;2.77;1.93;;;9.90;96.30;;;;;;5053457;28;20467;-73
2022/11/12 15:07:01;;;;;;;2.57;1.70;;;9.70;96.30;;;;;;5053460;28;20428;-73
2022/11/12 15:09:36;;;;;;;2.03;1.00;;;9.50;96.30;;;;;;5043552;28;20918;-72
2022/11/12 15:12:04;;;;;;;1.80;1.00;;;9.30;96.30;;;;;;5033426;28;20204;-73
2022/11/12 15:14:30;;;;;;;1.30;0.90;;;9.10;96.30;;;;;;5030335;28;20489;-74
2022/11/12 15:16:56;;;;;;;2.90;1.40;;;8.80;96.30;;;;;;5027463;28;20492;-74
2022/11/12 15:19:24;;;;;;;2.67;1.50;;;8.70;96.30;;;;;;5024845;28;20407;-75
2022/11/12 15:21:52;;;;;;;2.20;1.90;;;8.50;96.30;;;;;;5037993;28;20611;-74
2022/11/12 15:24:26;;;;;;;3.13;2.30;;;8.40;96.30;;;;;;5032133;28;20411;-73
2022/11/12 15:26:53;;;;;;;5.60;3.17;;;8.30;96.30;;;;;;5015244;28;20399;-73
2022/11/12 15:29:33;;;;;;;10.33;2.20;;;8.40;96.30;;;;;;5033279;28;20414;-73
2022/11/12 15:32:02;;;;;;;3.87;2.03;;;8.30;96.30;;;;;;5028100;28;20460;-73
2022/11/12 15:34:40;;;;;;;11.53;8.60;;;8.10;96.30;;;;;;5030096;28;20411;-73
2022/11/12 15:37:18;;;;;;;18.67;13.07;;;7.90;96.30;;;;;;5031714;28;20461;-73
2022/11/12 15:39:50;;;;;;;6.03;4.80;;;7.70;96.30;;;;;;5040409;28;21001;-72
2022/11/12 15:42:36;;;;;;;15.00;10.93;;;7.50;96.30;;;;;;5035489;28;20467;-73
2022/11/12 15:45:09;;;;;;;5.37;4.87;;;7.20;96.30;;;;;;5041530;28;20485;-73
2022/11/12 15:47:35;;;;;;;7.70;5.30;;;6.90;96.30;;;;;;5037955;28;20973;-73
2022/11/12 15:50:22;;;;;;;4.80;3.23;;;6.80;96.30;;;;;;5042005;28;20446;-74
2022/11/12 15:52:48;;;;;;;4.63;2.90;;;6.80;96.30;;;;;;5030731;28;20644;-73
2022/11/12 15:55:14;;;;;;;4.90;3.70;;;6.70;96.30;;;;;;5028321;28;20419;-73
2022/11/12 15:57:47;;;;;;;3.40;3.10;;;6.60;96.30;;;;;;5029244;28;20889;-73
2022/11/12 16:00:19;;;;;;;3.70;3.17;;;6.60;96.30;;;;;;5028834;28;20472;-73
2022/11/12 16:02:48;;;;;;;4.20;3.00;;;6.60;96.30;;;;;;5027413;28;20412;-73
2022/11/12 16:05:15;;;;;;;2.63;2.07;;;6.50;96.30;;;;;;5040307;28;20988;-74
2022/11/12 16:07:41;;;;;;;3.23;2.40;;;6.40;96.30;;;;;;5052026;28;20426;-73
2022/11/12 16:10:11;;;;;;;4.67;3.50;;;6.30;96.30;;;;;;5026820;28;20490;-75
2022/11/12 16:12:36;;;;;;;7.57;5.93;;;6.20;96.30;;;;;;5012063;28;20192;-77
2022/11/12 16:15:02;;;;;;;9.83;6.50;;;6.10;96.30;;;;;;5026438;28;20914;-75
2022/11/12 16:17:28;;;;;;;9.40;6.70;;;6.00;96.30;;;;;;5040023;28;20190;-74
2022/11/12 16:19:54;;;;;;;14.67;9.20;;;5.90;96.30;;;;;;5045927;28;20442;-74
2022/11/12 16:22:19;;;;;;;31.43;18.90;;;5.80;96.30;;;;;;5049317;28;20261;-76
2022/11/12 16:24:45;;;;;;;35.37;20.63;;;5.80;96.30;;;;;;5038334;28;20206;-73
2022/11/12 16:27:12;;;;;;;14.70;9.80;;;5.80;96.30;;;;;;5031807;28;20222;-74
2022/11/12 16:29:38;;;;;;;15.20;7.70;;;5.90;96.30;;;;;;5032174;28;20277;-74
2022/11/12 16:32:04;;;;;;;12.07;6.33;;;5.90;96.30;;;;;;5032419;28;20977;-74
2022/11/12 16:34:29;;;;;;;9.43;7.00;;;5.70;96.30;;;;;;5032039;28;20541;-74
2022/11/12 16:36:56;;;;;;;36.80;17.23;;;5.90;96.30;;;;;;5031511;28;20180;-73
2022/11/12 16:39:21;;;;;;;33.87;20.57;;;6.00;96.30;;;;;;5031991;28;20187;-74
2022/11/12 16:41:47;;;;;;;22.77;14.20;;;6.10;96.30;;;;;;5031609;28;20466;-73
2022/11/12 16:44:12;;;;;;;28.70;15.53;;;6.20;96.30;;;;;;5031939;28;20586;-74
2022/11/12 16:46:42;;;;;;;19.37;12.33;;;6.00;96.30;;;;;;5015237;28;20203;-75
2022/11/12 16:49:14;;;;;;;21.07;11.70;;;6.00;96.30;;;;;;5012106;28;20220;-73
2022/11/12 16:51:40;;;;;;;20.73;10.53;;;6.10;96.30;;;;;;5048064;28;20434;-73
2022/11/12 16:54:06;;;;;;;27.80;18.00;;;6.10;96.30;;;;;;5051485;28;20501;-73
2022/11/12 16:56:33;;;;;;;18.77;12.57;;;6.00;96.30;;;;;;5051401;28;20429;-74
2022/11/12 16:58:58;;;;;;;13.10;8.23;;;5.90;96.30;;;;;;5050415;28;20422;-73
2022/11/12 17:01:26;;;;;;;18.40;12.53;;;5.80;96.30;;;;;;5050276;28;20516;-73
2022/11/12 17:03:57;;;;;;;16.37;8.00;;;5.80;96.30;;;;;;5051602;28;20647;-73
2022/11/12 17:06:31;;;;;;;11.07;5.97;;;5.90;96.30;;;;;;5051195;28;20409;-73
2022/11/12 17:08:56;;;;;;;7.07;5.20;;;5.90;96.30;;;;;;5050931;28;20456;-74
2022/11/12 17:11:22;;;;;;;9.97;5.90;;;6.00;96.30;;;;;;5051502;28;20429;-73
2022/11/12 17:13:48;;;;;;;11.80;7.23;;;6.10;96.30;;;;;;5049977;28;20615;-74
2022/11/12 17:16:14;;;;;;;11.43;7.80;;;6.30;96.30;;;;;;5051706;28;20195;-74
2022/11/12 17:18:39;;;;;;;13.53;7.70;;;6.30;96.30;;;;;;5051157;28;20410;-73
2022/11/12 17:21:10;;;;;;;18.73;9.37;;;6.30;96.30;;;;;;5051269;28;20214;-73
2022/11/12 17:23:35;;;;;;;31.33;17.10;;;6.20;96.30;;;;;;5051466;28;20168;-73
2022/11/12 17:26:03;;;;;;;30.07;18.53;;;6.10;96.30;;;;;;5051815;28;20514;-73
2022/11/12 17:28:29;;;;;;;20.37;12.40;;;6.10;96.30;;;;;;5051377;28;20659;-73
2022/11/12 17:31:22;;;;;;;16.10;11.37;;;6.10;96.30;;;;;;5051122;28;20948;-73
2022/11/12 17:33:51;;;;;;;16.33;12.03;;;6.00;96.30;;;;;;5048229;28;20422;-73
2022/11/12 17:36:23;;;;;;;9.23;6.33;;;6.00;96.30;;;;;;5051253;28;20421;-73
2022/11/12 17:38:53;;;;;;;15.23;9.10;;;6.00;96.30;;;;;;5049268;28;20914;-74
2022/11/12 17:41:18;;;;;;;11.80;7.90;;;6.10;96.30;;;;;;5051040;28;20464;-73
2022/11/12 17:43:44;;;;;;;8.13;6.20;;;6.10;96.30;;;;;;5051146;28;20905;-73
2022/11/12 17:46:11;;;;;;;45.53;21.10;;;6.20;96.30;;;;;;5050164;28;20180;-73
2022/11/12 17:48:37;;;;;;;26.40;18.27;;;6.20;96.30;;;;;;5049650;28;20203;-73
2022/11/12 17:51:12;;;;;;;13.57;8.43;;;6.10;96.30;;;;;;5050068;28;20515;-73
2022/11/12 17:53:38;;;;;;;8.30;5.93;;;6.10;96.30;;;;;;5046302;28;20643;-73
2022/11/12 17:56:04;;;;;;;7.67;5.60;;;5.90;96.30;;;;;;5043991;28;20822;-73
2022/11/12 17:58:30;;;;;;;7.60;5.67;;;5.90;96.30;;;;;;5040343;28;20429;-73
2022/11/12 18:01:03;;;;;;;10.60;8.23;;;5.80;96.30;;;;;;5050714;28;20981;-73
2022/11/12 18:03:29;;;;;;;31.10;26.63;;;5.70;96.30;;;;;;5035448;28;20238;-73
2022/11/12 18:05:58;;;;;;;17.97;10.70;;;5.60;96.30;;;;;;5031114;28;20415;-73
2022/11/12 18:08:24;;;;;;;42.50;27.27;;;5.60;96.30;;;;;;5031840;28;20176;-73
2022/11/12 18:10:50;;;;;;;51.17;32.27;;;5.60;96.30;;;;;;5040439;28;20444;-73
2022/11/12 18:13:16;;;;;;;59.23;36.10;;;5.50;96.30;;;;;;5054964;28;20240;-73
2022/11/12 18:15:42;;;;;;;22.30;14.93;;;5.50;96.30;;;;;;5039572;28;20819;-73
2022/11/12 18:18:07;;;;;;;22.13;15.13;;;5.30;96.30;;;;;;5022566;28;20192;-73
2022/11/12 18:20:33;;;;;;;16.90;9.20;;;5.20;96.30;;;;;;5028642;28;20211;-73
2022/11/12 18:22:59;;;;;;;15.43;9.80;;;5.00;96.30;;;;;;5034698;28;20564;-73
2022/11/12 18:25:25;;;;;;;25.53;17.03;;;4.80;96.30;;;;;;5034576;28;20177;-73
2022/11/12 18:27:51;;;;;;;21.10;13.73;;;4.70;96.30;;;;;;5039408;28;20410;-72
2022/11/12 18:30:16;;;;;;;14.50;10.90;;;4.70;96.30;;;;;;5054642;28;20406;-73
2022/11/12 18:32:42;;;;;;;14.77;10.93;;;4.50;96.30;;;;;;5042075;28;20176;-73
2022/11/12 18:35:07;;;;;;;23.13;12.63;;;4.30;96.30;;;;;;5034397;28;20176;-74
2022/11/12 18:37:33;;;;;;;53.17;33.10;;;4.20;96.30;;;;;;5026413;28;20548;-74
2022/11/12 18:39:59;;;;;;;45.50;30.37;;;4.10;96.30;;;;;;5038018;28;20203;-74
2022/11/12 18:42:24;;;;;;;41.33;25.67;;;4.00;96.30;;;;;;5053970;28;20264;-74
2022/11/12 18:44:50;;;;;;;78.80;39.90;;;4.00;96.30;;;;;;5041962;28;20244;-74
2022/11/12 18:47:15;;;;;;;101.90;55.87;;;3.90;96.30;;;;;;5029508;28;20204;-73
2022/11/12 18:49:41;;;;;;;33.47;17.00;;;3.80;96.30;;;;;;5028658;28;20187;-73
2022/11/12 18:52:06;;;;;;;17.30;9.70;;;3.80;96.30;;;;;;5028070;28;20588;-72
2022/11/12 18:54:32;;;;;;;12.30;8.00;;;3.90;96.30;;;;;;5026530;28;20180;-73
2022/11/12 18:56:57;;;;;;;13.50;8.00;;;4.00;96.30;;;;;;5029724;28;20234;-72
2022/11/12 18:59:29;;;;;;;11.57;6.60;;;4.10;96.30;;;;;;5030068;28;20235;-73
2022/11/12 19:01:55;;;;;;;9.83;6.37;;;4.10;96.30;;;;;;5017158;28;20587;-72
2022/11/12 19:04:21;;;;;;;9.67;6.47;;;4.10;96.30;;;;;;5040204;28;20426;-73
2022/11/12 19:06:46;;;;;;;18.93;8.60;;;4.10;96.30;;;;;;5040789;28;20448;-73
2022/11/12 19:09:13;;;;;;;15.93;9.70;;;4.00;96.30;;;;;;5035259;28;20200;-73
2022/11/12 19:11:39;;;;;;;18.10;11.97;;;3.90;96.30;;;;;;5030387;28;20203;-73
2022/11/12 19:14:04;;;;;;;20.67;11.80;;;3.70;96.30;;;;;;5030981;28;20498;-73
2022/11/12 19:16:30;;;;;;;13.57;9.40;;;3.50;96.30;;;;;;5034205;28;20183;-73
2022/11/12 19:18:55;;;;;;;19.00;10.30;;;3.50;96.30;;;;;;5040640;28;20179;-73
2022/11/12 19:21:23;;;;;;;12.80;7.30;;;3.50;96.30;;;;;;5034649;28;20704;-73
2022/11/12 19:23:51;;;;;;;12.53;8.13;;;3.60;96.30;;;;;;5016278;28;20164;-73
2022/11/12 19:26:17;;;;;;;19.87;11.13;;;3.60;96.30;;;;;;5027954;28;20821;-73
2022/11/12 19:28:43;;;;;;;15.90;9.50;;;3.60;96.30;;;;;;5031314;28;20411;-73
2022/11/12 19:31:17;;;;;;;18.23;11.00;;;3.70;96.30;;;;;;5031861;28;20488;-73
2022/11/12 19:33:43;;;;;;;20.10;12.57;;;3.70;96.30;;;;;;5027915;28;20780;-73
2022/11/12 19:36:12;;;;;;;20.33;10.50;;;3.70;96.30;;;;;;5023412;28;20438;-73
2022/11/12 19:38:38;;;;;;;14.30;8.93;;;3.80;96.30;;;;;;5022730;28;20415;-73
2022/11/12 19:41:08;;;;;;;16.10;9.90;;;3.70;96.30;;;;;;5016218;28;20474;-73
2022/11/12 19:43:34;;;;;;;20.53;10.93;;;3.60;96.30;;;;;;5019934;28;20165;-73
2022/11/12 19:46:00;;;;;;;21.60;12.10;;;3.50;96.30;;;;;;5011910;28;20412;-73
2022/11/12 19:48:25;;;;;;;16.03;10.63;;;3.30;96.30;;;;;;5025599;28;20570;-73
2022/11/12 19:50:51;;;;;;;23.37;13.00;;;3.20;96.30;;;;;;5032944;28;20192;-73
2022/11/12 19:53:17;;;;;;;33.87;18.43;;;3.00;96.30;;;;;;5028146;28;20566;-73
2022/11/12 19:55:42;;;;;;;43.03;25.40;;;2.80;96.30;;;;;;5031760;28;20259;-73
2022/11/12 19:58:08;;;;;;;39.30;21.83;;;2.70;96.30;;;;;;5034758;28;20259;-73
2022/11/12 20:00:34;;;;;;;40.13;24.70;;;2.60;96.30;;;;;;5041191;28;20696;-73
2022/11/12 20:02:59;;;;;;;54.50;27.37;;;2.60;96.30;;;;;;5031007;28;21054;-74
2022/11/12 20:05:25;;;;;;;38.77;20.90;;;2.50;96.30;;;;;;5039184;28;20695;-73
2022/11/12 20:07:51;;;;;;;38.37;20.03;;;2.40;96.30;;;;;;5033174;28;20185;-74
2022/11/12 20:10:17;;;;;;;34.80;17.17;;;2.40;96.30;;;;;;5025670;28;20259;-74
2022/11/12 20:12:43;;;;;;;31.73;18.47;;;2.30;96.30;;;;;;5032004;28;20514;-73
2022/11/12 20:15:09;;;;;;;26.00;16.30;;;2.20;96.30;;;;;;5032150;28;20418;-73
2022/11/12 20:17:38;;;;;;;18.13;9.13;;;2.10;96.30;;;;;;5033470;28;20442;-73
2022/11/12 20:20:05;;;;;;;12.70;7.60;;;2.40;96.30;;;;;;5029875;28;21202;-73
2022/11/12 20:22:30;;;;;;;17.40;11.17;;;2.40;96.30;;;;;;5915037;22;20586;-73
2022/11/12 20:24:56;;;;;;;81.97;39.77;;;2.50;96.30;;;;;;5056940;28;20470;-74
2022/11/12 20:27:22;;;;;;;92.73;44.47;;;2.50;96.30;;;;;;5040368;28;20345;-74
2022/11/12 20:29:48;;;;;;;32.60;17.23;;;2.50;96.30;;;;;;5050749;28;20508;-73
2022/11/12 20:32:13;;;;;;;24.50;13.83;;;2.30;96.30;;;;;;5030974;28;20606;-73
2022/11/12 20:34:39;;;;;;;24.53;15.40;;;2.20;96.30;;;;;;5050318;28;20175;-73
2022/11/12 20:37:04;;;;;;;31.07;16.27;;;2.10;96.30;;;;;;5043581;28;20317;-75
2022/11/12 20:39:31;;;;;;;17.70;11.00;;;2.00;96.30;;;;;;5040199;28;20656;-74
2022/11/12 20:41:57;;;;;;;15.83;10.40;;;1.80;96.30;;;;;;5040646;28;20222;-74
2022/11/12 20:44:23;;;;;;;31.10;17.63;;;1.70;96.30;;;;;;5036394;28;21213;-74
2022/11/12 20:46:48;;;;;;;42.60;24.77;;;1.70;96.30;;;;;;5019856;28;20410;-75
2022/11/12 20:49:14;;;;;;;31.73;18.50;;;1.80;96.30;;;;;;5043572;28;20906;-74
2022/11/12 20:51:39;;;;;;;23.27;13.43;;;1.80;96.30;;;;;;5045279;28;20710;-75
2022/11/12 20:54:05;;;;;;;14.83;9.50;;;1.80;96.30;;;;;;5044497;28;20662;-74
2022/11/12 20:56:30;;;;;;;7.77;4.80;;;1.80;96.30;;;;;;5047825;28;20172;-74
2022/11/12 20:58:57;;;;;;;16.10;9.87;;;1.90;96.30;;;;;;5024336;28;20267;-73
2022/11/12 21:01:24;;;;;;;15.50;9.10;;;2.00;96.30;;;;;;5044076;28;20269;-73
2022/11/12 21:03:50;;;;;;;13.07;8.57;;;2.00;96.30;;;;;;5038158;28;20834;-75
2022/11/12 21:06:18;;;;;;;9.73;4.63;;;2.20;96.30;;;;;;5047653;28;20483;-74
2022/11/12 21:08:44;;;;;;;7.30;4.17;;;2.30;96.30;;;;;;5045146;28;20468;-73
2022/11/12 21:11:12;;;;;;;7.47;5.20;;;2.50;96.30;;;;;;5038355;28;20439;-73
2022/11/12 21:13:38;;;;;;;9.10;5.57;;;2.80;96.30;;;;;;5040537;28;20241;-73
2022/11/12 21:16:06;;;;;;;6.33;4.60;;;2.80;96.30;;;;;;5029715;28;20476;-74
2022/11/12 21:18:32;;;;;;;8.33;4.57;;;2.70;96.30;;;;;;5037103;28;20415;-74
2022/11/12 21:21:06;;;;;;;7.17;4.70;;;2.80;96.30;;;;;;5027331;28;20453;-75
2022/11/12 21:23:34;;;;;;;5.90;4.23;;;2.80;96.30;;;;;;5022019;28;20426;-74
2022/11/12 21:26:14;;;;;;;6.73;4.80;;;2.70;96.30;;;;;;5041408;28;20445;-73
2022/11/12 21:28:44;;;;;;;7.77;4.87;;;2.80;96.30;;;;;;5042977;28;20467;-73
2022/11/12 21:31:15;;;;;;;6.70;4.50;;;2.80;96.30;;;;;;5046642;28;20449;-73
2022/11/12 21:33:40;;;;;;;7.10;5.40;;;2.70;96.30;;;;;;5044821;28;20441;-73
2022/11/12 21:36:06;;;;;;;6.47;4.40;;;2.60;96.30;;;;;;5043234;28;20453;-77
2022/11/12 21:38:32;;;;;;;7.37;5.63;;;2.60;96.30;;;;;;5049867;28;20677;-73
2022/11/12 21:41:01;;;;;;;5.43;4.60;;;2.60;96.30;;;;;;5051077;28;20462;-73
2022/11/12 21:43:27;;;;;;;8.30;5.30;;;2.50;96.30;;;;;;5035735;28;20172;-73
2022/11/12 21:45:53;;;;;;;8.10;6.20;;;2.30;96.30;;;;;;5054015;28;20918;-73
2022/11/12 21:48:18;;;;;;;7.90;4.90;;;2.20;96.30;;;;;;5054759;28;20167;-72
2022/11/12 21:50:44;;;;;;;6.43;4.03;;;2.20;96.30;;;;;;5055397;28;20187;-73
2022/11/12 21:53:09;;;;;;;5.70;3.53;;;2.00;96.30;;;;;;5055091;28;20182;-76
2022/11/12 21:55:35;;;;;;;7.10;3.60;;;2.00;96.30;;;;;;5055263;28;20611;-73
2022/11/12 21:58:00;;;;;;;4.80;3.40;;;2.10;96.30;;;;;;5054841;28;20183;-73
2022/11/12 22:00:26;;;;;;;5.23;3.77;;;2.10;96.30;;;;;;5054666;28;20172;-75
2022/11/12 22:02:54;;;;;;;4.40;2.90;;;2.30;96.30;;;;;;5055108;28;20171;-75
2022/11/12 22:05:20;;;;;;;4.73;3.13;;;2.50;96.30;;;;;;5055126;28;20171;-73
2022/11/12 22:07:45;;;;;;;3.70;3.17;;;2.70;96.30;;;;;;5054291;28;20921;-74
2022/11/12 22:10:11;;;;;;;4.67;2.80;;;2.90;96.30;;;;;;5054799;28;20183;-73
2022/11/12 22:12:36;;;;;;;5.20;3.00;;;2.90;96.30;;;;;;5054600;28;20215;-72
2022/11/12 22:15:02;;;;;;;7.20;3.17;;;2.80;96.30;;;;;;5054750;28;20516;-72
2022/11/12 22:17:27;;;;;;;4.57;3.10;;;2.80;96.30;;;;;;5036580;28;20180;-72
2022/11/12 22:19:53;;;;;;;6.43;3.00;;;2.80;96.30;;;;;;5054878;28;20171;-72
2022/11/12 22:22:18;;;;;;;5.80;3.27;;;2.70;96.30;;;;;;5054533;28;20241;-72
2022/11/12 22:24:44;;;;;;;3.80;2.97;;;2.70;96.30;;;;;;5056962;28;20243;-72
2022/11/12 22:27:09;;;;;;;7.20;3.00;;;2.70;96.30;;;;;;5025296;28;20225;-72
2022/11/12 22:29:35;;;;;;;6.37;3.67;;;2.70;96.30;;;;;;5035854;28;20176;-72
2022/11/12 22:32:00;;;;;;;13.97;9.60;;;2.60;96.30;;;;;;5042946;28;20656;-72
2022/11/12 22:34:26;;;;;;;23.10;15.23;;;2.50;96.30;;;;;;5034599;28;20172;-72
2022/11/12 22:36:51;;;;;;;24.57;16.53;;;2.40;96.30;;;;;;5033961;28;20180;-72
2022/11/12 22:39:17;;;;;;;17.23;10.50;;;2.30;96.30;;;;;;5034680;28;20528;-72
2022/11/12 22:41:42;;;;;;;12.77;8.63;;;2.20;96.30;;;;;;5034335;28;20199;-72
2022/11/12 22:44:08;;;;;;;10.33;6.93;;;2.30;96.30;;;;;;5034582;28;20169;-73
2022/11/12 22:46:35;;;;;;;10.03;6.17;;;2.30;96.30;;;;;;5034483;28;20172;-73
2022/11/12 22:49:02;;;;;;;13.40;7.27;;;2.30;96.30;;;;;;5034339;28;20168;-73
2022/11/12 22:51:30;;;;;;;11.83;7.30;;;2.20;96.30;;;;;;5034353;28;20433;-73
2022/11/12 22:54:01;;;;;;;22.27;11.50;;;2.20;96.30;;;;;;5033945;28;20425;-73
2022/11/12 22:56:27;;;;;;;44.30;21.27;;;2.00;96.30;;;;;;5034279;28;20435;-73
2022/11/12 22:58:53;;;;;;;20.83;9.70;;;1.90;96.30;;;;;;5034089;28;20418;-73
2022/11/12 23:01:21;;;;;;;22.87;10.00;;;1.80;96.30;;;;;;5016547;28;20454;-73
2022/11/12 23:03:48;;;;;;;47.17;22.40;;;1.80;96.30;;;;;;5034258;28;20164;-73
2022/11/12 23:06:13;;;;;;;36.03;15.63;;;1.80;96.30;;;;;;5034137;28;20899;-73
2022/11/12 23:08:39;;;;;;;11.10;5.10;;;1.80;96.30;;;;;;5033946;28;20418;-73
2022/11/12 23:11:07;;;;;;;4.40;2.60;;;1.60;96.30;;;;;;5033880;28;20192;-73
2022/11/12 23:13:33;;;;;;;6.43;3.90;;;1.50;96.30;;;;;;5033843;28;20493;-73
2022/11/12 23:16:00;;;;;;;5.43;4.00;;;1.50;96.30;;;;;;5015043;28;20493;-73
2022/11/12 23:18:25;;;;;;;3.60;2.77;;;1.50;96.30;;;;;;5033048;28;20443;-73
2022/11/12 23:20:51;;;;;;;5.10;3.50;;;1.60;96.30;;;;;;5033780;28;20505;-73
2022/11/12 23:23:16;;;;;;;4.77;4.27;;;1.60;96.30;;;;;;5033704;28;20188;-73
2022/11/12 23:25:42;;;;;;;5.13;3.87;;;1.60;96.30;;;;;;5033848;28;20196;-73
2022/11/12 23:28:08;;;;;;;6.00;3.00;;;1.60;96.30;;;;;;5033539;28;20720;-73
2022/11/12 23:30:34;;;;;;;6.10;3.00;;;1.70;96.30;;;;;;5015921;28;20513;-73
2022/11/12 23:33:00;;;;;;;4.23;3.17;;;1.80;96.30;;;;;;5033747;28;20234;-72
2022/11/12 23:35:27;;;;;;;4.57;3.17;;;1.90;96.30;;;;;;5033548;28;20903;-73
2022/11/12 23:37:53;;;;;;;6.23;3.90;;;1.80;96.30;;;;;;5033459;28;20546;-73
2022/11/12 23:40:19;;;;;;;10.43;5.60;;;1.70;96.30;;;;;;5015490;28;20419;-73
2022/11/12 23:42:44;;;;;;;8.90;6.83;;;1.80;96.30;;;;;;5033432;28;20169;-73
2022/11/12 23:45:10;;;;;;;11.53;5.77;;;1.70;96.30;;;;;;5033470;28;20180;-73
2022/11/12 23:47:35;;;;;;;7.77;4.00;;;1.70;96.30;;;;;;5034026;28;20176;-73
2022/11/12 23:50:01;;;;;;;4.57;3.40;;;1.70;96.30;;;;;;5035072;28;20207;-73
2022/11/12 23:52:26;;;;;;;4.20;3.00;;;1.60;96.30;;;;;;5034778;28;20196;-73
2022/11/12 23:54:52;;;;;;;4.80;2.77;;;1.50;96.30;;;;;;5035107;28;20187;-73
2022/11/12 23:57:17;;;;;;;5.60;2.93;;;1.50;96.30;;;;;;5034687;28;20260;-72
2022/11/12 23:59:43;;;;;;;7.33;3.20;;;1.50;96.30;;;;;;5034872;28;20711;-73
